sensor_id;sensor_type;location;lat;lon;timestamp;P1;durP1;ratioP1;P2;durP2;ratioP2
9900;SDS011;4989;48.772;9.154;2023-07-28T00:01:41;510.23;;;468.63;;
9900;SDS011;4989;48.772;9.154;2023-07-28T00:06:44;493.73;;;453.07;;
9900;SDS011;4989;48.772;9.154;2023-07-28T00:11:46;452.27;;;412.90;;
9900;SDS011;4989;48.772;9.154;2023-07-28T00:16:48;426.47;;;387.93;;
9900;SDS011;4989;48.772;9.154;2023-07-28T00:21:51;425.83;;;387.43;;
9900;SDS011;4989;48.772;9.154;2023-07-28T00:26:53;325.77;;;288.83;;
9900;SDS011;4989;48.772;9.154;2023-07-28T00:31:55;337.77;;;302.87;;
9900;SDS011;4989;48.772;9.154;2023-07-28T00:36:57;355.60;;;320.30;;
9900;SDS011;4989;48.772;9.154;2023-07-28T00:41:59;334.80;;;299.97;;
9900;SDS011;4989;48.772;9.154;2023-07-28T00:47:02;328.23;;;293.83;;
9900;SDS011;4989;48.772;9.154;2023-07-28T00:52:06;364.43;;;328.60;;
9900;SDS011;4989;48.772;9.154;2023-07-28T00:57:09;423.13;;;385.17;;
9900;SDS011;4989;48.772;9.154;2023-07-28T01:02:12;418.53;;;380.63;;
9900;SDS011;4989;48.772;9.154;2023-07-28T01:07:24;389.77;;;352.73;;
9900;SDS011;4989;48.772;9.154;2023-07-28T01:12:50;366.13;;;329.73;;
9900;SDS011;4989;48.772;9.154;2023-07-28T01:17:52;320.47;;;283.53;;
9900;SDS011;4989;48.772;9.154;2023-07-28T01:28:22;330.90;;;296.40;;
9900;SDS011;4989;48.772;9.154;2023-07-28T01:33:25;303.43;;;261.20;;
9900;SDS011;4989;48.772;9.154;2023-07-28T01:38:28;311.20;;;271.83;;
9900;SDS011;4989;48.772;9.154;2023-07-28T01:43:30;317.63;;;280.30;;
9900;SDS011;4989;48.772;9.154;2023-07-28T01:48:33;309.90;;;265.53;;
9900;SDS011;4989;48.772;9.154;2023-07-28T01:53:36;345.87;;;310.27;;
9900;SDS011;4989;48.772;9.154;2023-07-28T01:58:38;394.03;;;357.03;;
9900;SDS011;4989;48.772;9.154;2023-07-28T02:03:40;403.63;;;366.33;;
9900;SDS011;4989;48.772;9.154;2023-07-28T02:08:42;383.07;;;346.33;;
9900;SDS011;4989;48.772;9.154;2023-07-28T02:13:44;378.23;;;341.53;;
9900;SDS011;4989;48.772;9.154;2023-07-28T02:18:50;387.17;;;350.50;;
9900;SDS011;4989;48.772;9.154;2023-07-28T02:23:53;409.37;;;372.00;;
9900;SDS011;4989;48.772;9.154;2023-07-28T02:28:55;457.20;;;418.20;;
9900;SDS011;4989;48.772;9.154;2023-07-28T02:33:57;486.30;;;445.70;;
9900;SDS011;4989;48.772;9.154;2023-07-28T02:38:59;546.27;;;503.37;;
9900;SDS011;4989;48.772;9.154;2023-07-28T02:44:01;554.40;;;510.23;;
9900;SDS011;4989;48.772;9.154;2023-07-28T02:49:04;580.90;;;535.33;;
9900;SDS011;4989;48.772;9.154;2023-07-28T02:54:06;621.23;;;574.33;;
9900;SDS011;4989;48.772;9.154;2023-07-28T02:59:09;603.13;;;556.10;;
9900;SDS011;4989;48.772;9.154;2023-07-28T03:04:11;661.33;;;611.37;;
9900;SDS011;4989;48.772;9.154;2023-07-28T03:09:39;633.50;;;585.10;;
9900;SDS011;4989;48.772;9.154;2023-07-28T03:14:41;648.83;;;600.03;;
9900;SDS011;4989;48.772;9.154;2023-07-28T03:19:43;679.23;;;630.27;;
9900;SDS011;4989;48.772;9.154;2023-07-28T03:24:45;665.53;;;616.73;;
9900;SDS011;4989;48.772;9.154;2023-07-28T03:29:48;698.43;;;638.63;;
9900;SDS011;4989;48.772;9.154;2023-07-28T03:34:52;606.20;;;559.40;;
9900;SDS011;4989;48.772;9.154;2023-07-28T03:39:54;606.90;;;554.27;;
9900;SDS011;4989;48.772;9.154;2023-07-28T03:45:03;621.67;;;572.20;;
9900;SDS011;4989;48.772;9.154;2023-07-28T03:50:06;649.43;;;600.80;;
9900;SDS011;4989;48.772;9.154;2023-07-28T03:55:09;687.50;;;636.03;;
9900;SDS011;4989;48.772;9.154;2023-07-28T04:00:11;680.00;;;629.80;;
9900;SDS011;4989;48.772;9.154;2023-07-28T04:05:15;693.63;;;642.93;;
9900;SDS011;4989;48.772;9.154;2023-07-28T04:10:17;711.63;;;661.03;;
9900;SDS011;4989;48.772;9.154;2023-07-28T04:15:20;674.90;;;624.63;;
9900;SDS011;4989;48.772;9.154;2023-07-28T04:20:22;625.53;;;578.13;;
9900;SDS011;4989;48.772;9.154;2023-07-28T04:25:24;603.27;;;557.40;;
9900;SDS011;4989;48.772;9.154;2023-07-28T04:30:26;578.67;;;533.70;;
9900;SDS011;4989;48.772;9.154;2023-07-28T04:35:30;563.37;;;518.83;;
9900;SDS011;4989;48.772;9.154;2023-07-28T04:40:39;611.20;;;563.80;;
9900;SDS011;4989;48.772;9.154;2023-07-28T04:45:44;654.53;;;605.53;;
9900;SDS011;4989;48.772;9.154;2023-07-28T04:50:51;619.57;;;571.97;;
9900;SDS011;4989;48.772;9.154;2023-07-28T04:56:12;615.67;;;568.53;;
9900;SDS011;4989;48.772;9.154;2023-07-28T05:01:14;659.67;;;611.57;;
9900;SDS011;4989;48.772;9.154;2023-07-28T05:06:19;637.80;;;590.33;;
9900;SDS011;4989;48.772;9.154;2023-07-28T05:11:22;610.03;;;563.13;;
9900;SDS011;4989;48.772;9.154;2023-07-28T05:16:24;588.77;;;541.67;;
9900;SDS011;4989;48.772;9.154;2023-07-28T05:21:38;618.83;;;570.33;;
9900;SDS011;4989;48.772;9.154;2023-07-28T05:26:43;658.17;;;608.70;;
9900;SDS011;4989;48.772;9.154;2023-07-28T05:31:46;702.90;;;652.97;;
9900;SDS011;4989;48.772;9.154;2023-07-28T05:37:05;590.00;;;544.27;;
9900;SDS011;4989;48.772;9.154;2023-07-28T05:42:08;546.07;;;501.40;;
9900;SDS011;4989;48.772;9.154;2023-07-28T05:47:10;554.37;;;510.10;;
9900;SDS011;4989;48.772;9.154;2023-07-28T05:52:12;606.27;;;559.90;;
9900;SDS011;4989;48.772;9.154;2023-07-28T05:57:14;651.97;;;603.73;;
9900;SDS011;4989;48.772;9.154;2023-07-28T06:02:16;663.03;;;614.33;;
9900;SDS011;4989;48.772;9.154;2023-07-28T06:07:24;577.73;;;532.80;;
9900;SDS011;4989;48.772;9.154;2023-07-28T06:12:28;567.60;;;522.53;;
9900;SDS011;4989;48.772;9.154;2023-07-28T06:17:31;587.03;;;541.67;;
9900;SDS011;4989;48.772;9.154;2023-07-28T06:22:34;598.93;;;552.70;;
9900;SDS011;4989;48.772;9.154;2023-07-28T06:27:37;583.10;;;537.13;;
9900;SDS011;4989;48.772;9.154;2023-07-28T06:32:40;631.83;;;583.73;;
9900;SDS011;4989;48.772;9.154;2023-07-28T06:37:42;634.30;;;585.90;;
9900;SDS011;4989;48.772;9.154;2023-07-28T06:42:44;693.07;;;642.27;;
9900;SDS011;4989;48.772;9.154;2023-07-28T06:47:47;713.77;;;662.10;;
9900;SDS011;4989;48.772;9.154;2023-07-28T06:52:50;676.53;;;626.17;;
9900;SDS011;4989;48.772;9.154;2023-07-28T06:57:56;602.77;;;555.77;;
9900;SDS011;4989;48.772;9.154;2023-07-28T07:02:59;611.97;;;565.00;;
9900;SDS011;4989;48.772;9.154;2023-07-28T07:08:01;616.57;;;569.10;;
9900;SDS011;4989;48.772;9.154;2023-07-28T07:13:04;639.53;;;589.97;;
9900;SDS011;4989;48.772;9.154;2023-07-28T07:18:06;656.27;;;606.97;;
9900;SDS011;4989;48.772;9.154;2023-07-28T07:23:08;674.37;;;623.90;;
9900;SDS011;4989;48.772;9.154;2023-07-28T07:28:11;669.17;;;618.83;;
9900;SDS011;4989;48.772;9.154;2023-07-28T07:33:14;702.27;;;650.57;;
9900;SDS011;4989;48.772;9.154;2023-07-28T07:38:16;730.37;;;677.83;;
9900;SDS011;4989;48.772;9.154;2023-07-28T07:43:18;733.90;;;681.27;;
9900;SDS011;4989;48.772;9.154;2023-07-28T07:48:21;714.67;;;663.07;;
9900;SDS011;4989;48.772;9.154;2023-07-28T07:53:24;629.50;;;581.63;;
9900;SDS011;4989;48.772;9.154;2023-07-28T07:58:26;618.47;;;571.47;;
9900;SDS011;4989;48.772;9.154;2023-07-28T08:03:29;628.63;;;580.57;;
9900;SDS011;4989;48.772;9.154;2023-07-28T08:08:41;660.70;;;610.97;;
9900;SDS011;4989;48.772;9.154;2023-07-28T08:13:44;699.87;;;648.87;;
9900;SDS011;4989;48.772;9.154;2023-07-28T08:18:58;699.73;;;649.10;;
9900;SDS011;4989;48.772;9.154;2023-07-28T08:29:35;665.73;;;615.97;;
9900;SDS011;4989;48.772;9.154;2023-07-28T08:46:07;738.43;;;684.43;;
9900;SDS011;4989;48.772;9.154;2023-07-28T08:51:14;772.43;;;715.57;;
9900;SDS011;4989;48.772;9.154;2023-07-28T08:56:17;817.83;;;759.90;;
9900;SDS011;4989;48.772;9.154;2023-07-28T09:01:30;738.43;;;684.03;;
9900;SDS011;4989;48.772;9.154;2023-07-28T09:18:29;772.03;;;716.07;;
9900;SDS011;4989;48.772;9.154;2023-07-28T09:23:53;807.60;;;749.87;;
9900;SDS011;4989;48.772;9.154;2023-07-28T09:28:58;756.43;;;700.67;;
9900;SDS011;4989;48.772;9.154;2023-07-28T09:34:06;767.80;;;711.83;;
9900;SDS011;4989;48.772;9.154;2023-07-28T09:39:26;781.13;;;724.77;;
9900;SDS011;4989;48.772;9.154;2023-07-28T09:44:31;782.63;;;725.80;;
9900;SDS011;4989;48.772;9.154;2023-07-28T09:49:35;780.37;;;723.87;;
9900;SDS011;4989;48.772;9.154;2023-07-28T09:54:45;827.33;;;767.37;;
9900;SDS011;4989;48.772;9.154;2023-07-28T10:00:23;767.00;;;711.00;;
9900;SDS011;4989;48.772;9.154;2023-07-28T10:06:04;754.30;;;698.67;;
9900;SDS011;4989;48.772;9.154;2023-07-28T10:11:14;792.60;;;734.83;;
9900;SDS011;4989;48.772;9.154;2023-07-28T10:16:18;850.60;;;789.90;;
9900;SDS011;4989;48.772;9.154;2023-07-28T10:21:40;780.97;;;723.60;;
9900;SDS011;4989;48.772;9.154;2023-07-28T10:26:45;788.63;;;730.87;;
9900;SDS011;4989;48.772;9.154;2023-07-28T10:31:53;834.70;;;775.57;;
9900;SDS011;4989;48.772;9.154;2023-07-28T10:37:08;781.07;;;723.40;;
9900;SDS011;4989;48.772;9.154;2023-07-28T10:42:15;821.33;;;762.00;;
9900;SDS011;4989;48.772;9.154;2023-07-28T10:47:27;761.50;;;705.37;;
9900;SDS011;4989;48.772;9.154;2023-07-28T10:52:42;756.87;;;700.30;;
9900;SDS011;4989;48.772;9.154;2023-07-28T10:57:57;807.77;;;749.53;;
9900;SDS011;4989;48.772;9.154;2023-07-28T11:03:00;772.57;;;716.20;;
9900;SDS011;4989;48.772;9.154;2023-07-28T11:08:06;797.47;;;739.60;;
9900;SDS011;4989;48.772;9.154;2023-07-28T11:13:20;878.23;;;816.97;;
9900;SDS011;4989;48.772;9.154;2023-07-28T11:18:44;795.73;;;737.90;;
9900;SDS011;4989;48.772;9.154;2023-07-28T11:23:56;825.90;;;768.00;;
9900;SDS011;4989;48.772;9.154;2023-07-28T11:28:59;759.40;;;705.47;;
9900;SDS011;4989;48.772;9.154;2023-07-28T11:34:12;774.57;;;720.30;;
9900;SDS011;4989;48.772;9.154;2023-07-28T11:39:21;877.17;;;818.37;;
9900;SDS011;4989;48.772;9.154;2023-07-28T11:56:38;770.57;;;716.07;;
9900;SDS011;4989;48.772;9.154;2023-07-28T12:02:03;843.57;;;786.33;;
9900;SDS011;4989;48.772;9.154;2023-07-28T12:07:16;820.43;;;763.70;;
9900;SDS011;4989;48.772;9.154;2023-07-28T12:12:20;840.23;;;783.67;;
9900;SDS011;4989;48.772;9.154;2023-07-28T12:29:11;733.23;;;680.47;;
9900;SDS011;4989;48.772;9.154;2023-07-28T12:34:16;793.87;;;738.90;;
9900;SDS011;4989;48.772;9.154;2023-07-28T12:39:28;693.40;;;644.03;;
9900;SDS011;4989;48.772;9.154;2023-07-28T12:44:35;714.20;;;664.07;;
9900;SDS011;4989;48.772;9.154;2023-07-28T12:49:43;752.53;;;699.70;;
9900;SDS011;4989;48.772;9.154;2023-07-28T12:55:03;713.40;;;663.50;;
9900;SDS011;4989;48.772;9.154;2023-07-28T13:00:23;808.67;;;754.27;;
9900;SDS011;4989;48.772;9.154;2023-07-28T13:05:41;756.83;;;704.20;;
9900;SDS011;4989;48.772;9.154;2023-07-28T13:10:50;819.50;;;764.47;;
9900;SDS011;4989;48.772;9.154;2023-07-28T13:15:57;731.17;;;680.30;;
9900;SDS011;4989;48.772;9.154;2023-07-28T13:21:02;743.30;;;692.33;;
9900;SDS011;4989;48.772;9.154;2023-07-28T14:14:19;777.00;;;723.60;;
9900;SDS011;4989;48.772;9.154;2023-07-28T14:19:23;803.63;;;750.00;;
9900;SDS011;4989;48.772;9.154;2023-07-28T14:24:49;776.83;;;723.80;;
9900;SDS011;4989;48.772;9.154;2023-07-28T14:29:51;737.57;;;686.13;;
9900;SDS011;4989;48.772;9.154;2023-07-28T14:34:56;719.67;;;668.87;;
9900;SDS011;4989;48.772;9.154;2023-07-28T14:40:04;641.83;;;594.50;;
9900;SDS011;4989;48.772;9.154;2023-07-28T14:56:29;609.50;;;563.37;;
9900;SDS011;4989;48.772;9.154;2023-07-28T15:01:35;641.00;;;594.20;;
9900;SDS011;4989;48.772;9.154;2023-07-28T15:06:38;677.10;;;628.50;;
9900;SDS011;4989;48.772;9.154;2023-07-28T15:11:55;738.10;;;687.30;;
9900;SDS011;4989;48.772;9.154;2023-07-28T15:17:02;657.97;;;610.67;;
9900;SDS011;4989;48.772;9.154;2023-07-28T15:22:06;635.90;;;589.30;;
9900;SDS011;4989;48.772;9.154;2023-07-28T15:27:14;703.13;;;653.33;;
9900;SDS011;4989;48.772;9.154;2023-07-28T15:32:18;748.77;;;697.33;;
9900;SDS011;4989;48.772;9.154;2023-07-28T15:37:28;668.30;;;619.57;;
9900;SDS011;4989;48.772;9.154;2023-07-28T15:42:32;666.60;;;618.73;;
9900;SDS011;4989;48.772;9.154;2023-07-28T15:47:39;662.17;;;614.07;;
9900;SDS011;4989;48.772;9.154;2023-07-28T15:52:51;718.27;;;668.10;;
9900;SDS011;4989;48.772;9.154;2023-07-28T15:58:27;670.47;;;622.10;;
9900;SDS011;4989;48.772;9.154;2023-07-28T16:03:34;659.43;;;612.13;;
9900;SDS011;4989;48.772;9.154;2023-07-28T16:08:36;643.93;;;597.47;;
9900;SDS011;4989;48.772;9.154;2023-07-28T16:13:42;669.70;;;620.37;;
9900;SDS011;4989;48.772;9.154;2023-07-28T16:18:45;701.00;;;649.93;;
9900;SDS011;4989;48.772;9.154;2023-07-28T16:23:47;741.27;;;689.87;;
9900;SDS011;4989;48.772;9.154;2023-07-28T16:28:54;709.63;;;660.03;;
9900;SDS011;4989;48.772;9.154;2023-07-28T16:34:07;657.10;;;609.37;;
9900;SDS011;4989;48.772;9.154;2023-07-28T16:39:11;663.97;;;615.07;;
9900;SDS011;4989;48.772;9.154;2023-07-28T16:44:20;701.67;;;651.83;;
9900;SDS011;4989;48.772;9.154;2023-07-28T16:49:32;635.70;;;589.37;;
9900;SDS011;4989;48.772;9.154;2023-07-28T16:54:44;668.47;;;619.60;;
9900;SDS011;4989;48.772;9.154;2023-07-28T17:00:02;632.50;;;585.63;;
9900;SDS011;4989;48.772;9.154;2023-07-28T17:05:09;680.90;;;629.57;;
9900;SDS011;4989;48.772;9.154;2023-07-28T17:10:35;665.87;;;617.30;;
9900;SDS011;4989;48.772;9.154;2023-07-28T17:15:57;670.17;;;621.20;;
9900;SDS011;4989;48.772;9.154;2023-07-28T17:21:04;652.23;;;604.33;;
9900;SDS011;4989;48.772;9.154;2023-07-28T17:26:12;675.23;;;626.23;;
9900;SDS011;4989;48.772;9.154;2023-07-28T17:31:28;643.57;;;595.87;;
9900;SDS011;4989;48.772;9.154;2023-07-28T17:48:08;610.40;;;564.70;;
9900;SDS011;4989;48.772;9.154;2023-07-28T17:53:23;714.77;;;664.53;;
9900;SDS011;4989;48.772;9.154;2023-07-28T17:58:26;625.47;;;579.43;;
9900;SDS011;4989;48.772;9.154;2023-07-28T18:03:33;589.13;;;544.80;;
9900;SDS011;4989;48.772;9.154;2023-07-28T18:16:16;685.17;;;635.93;;
9900;SDS011;4989;48.772;9.154;2023-07-28T18:21:36;582.47;;;538.17;;
9900;SDS011;4989;48.772;9.154;2023-07-28T18:26:46;688.27;;;639.93;;
9900;SDS011;4989;48.772;9.154;2023-07-28T18:31:51;672.03;;;624.47;;
9900;SDS011;4989;48.772;9.154;2023-07-28T18:36:54;614.87;;;568.80;;
9900;SDS011;4989;48.772;9.154;2023-07-28T18:42:01;551.90;;;509.07;;
9900;SDS011;4989;48.772;9.154;2023-07-28T18:47:52;655.00;;;607.33;;
9900;SDS011;4989;48.772;9.154;2023-07-28T18:52:54;633.40;;;586.77;;
9900;SDS011;4989;48.772;9.154;2023-07-28T18:57:59;574.87;;;530.63;;
9900;SDS011;4989;48.772;9.154;2023-07-28T19:03:06;561.67;;;518.27;;
9900;SDS011;4989;48.772;9.154;2023-07-28T19:08:11;544.23;;;500.63;;
9900;SDS011;4989;48.772;9.154;2023-07-28T19:13:13;584.97;;;540.23;;
9900;SDS011;4989;48.772;9.154;2023-07-28T19:18:16;586.80;;;542.13;;
9900;SDS011;4989;48.772;9.154;2023-07-28T19:23:36;495.87;;;456.03;;
9900;SDS011;4989;48.772;9.154;2023-07-28T19:28:39;493.60;;;451.60;;
9900;SDS011;4989;48.772;9.154;2023-07-28T19:33:50;576.87;;;528.47;;
9900;SDS011;4989;48.772;9.154;2023-07-28T19:39:07;594.50;;;542.10;;
9900;SDS011;4989;48.772;9.154;2023-07-28T19:44:11;638.73;;;590.83;;
9900;SDS011;4989;48.772;9.154;2023-07-28T19:49:13;651.33;;;603.10;;
9900;SDS011;4989;48.772;9.154;2023-07-28T19:54:23;680.57;;;632.33;;
9900;SDS011;4989;48.772;9.154;2023-07-28T19:59:26;592.27;;;547.90;;
9900;SDS011;4989;48.772;9.154;2023-07-28T20:04:33;563.43;;;520.13;;
9900;SDS011;4989;48.772;9.154;2023-07-28T20:09:40;577.07;;;532.57;;
9900;SDS011;4989;48.772;9.154;2023-07-28T20:15:20;640.70;;;593.73;;
9900;SDS011;4989;48.772;9.154;2023-07-28T20:20:24;661.07;;;613.53;;
9900;SDS011;4989;48.772;9.154;2023-07-28T20:25:31;557.43;;;514.43;;
9900;SDS011;4989;48.772;9.154;2023-07-28T20:30:45;634.17;;;587.50;;
9900;SDS011;4989;48.772;9.154;2023-07-28T20:35:58;536.90;;;495.07;;
9900;SDS011;4989;48.772;9.154;2023-07-28T20:41:00;548.77;;;506.30;;
9900;SDS011;4989;48.772;9.154;2023-07-28T20:46:02;560.10;;;516.73;;
9900;SDS011;4989;48.772;9.154;2023-07-28T20:51:04;618.27;;;573.30;;
9900;SDS011;4989;48.772;9.154;2023-07-28T20:56:12;632.13;;;584.73;;
9900;SDS011;4989;48.772;9.154;2023-07-28T21:01:23;689.37;;;639.87;;
9900;SDS011;4989;48.772;9.154;2023-07-28T21:06:26;611.40;;;565.83;;
9900;SDS011;4989;48.772;9.154;2023-07-28T21:11:39;572.37;;;527.87;;
9900;SDS011;4989;48.772;9.154;2023-07-28T21:16:48;675.57;;;627.17;;
9900;SDS011;4989;48.772;9.154;2023-07-28T21:22:02;639.10;;;592.70;;
9900;SDS011;4989;48.772;9.154;2023-07-28T21:27:07;570.10;;;526.30;;
9900;SDS011;4989;48.772;9.154;2023-07-28T21:32:09;583.83;;;539.43;;
9900;SDS011;4989;48.772;9.154;2023-07-28T21:37:14;614.10;;;567.40;;
9900;SDS011;4989;48.772;9.154;2023-07-28T21:43:00;516.30;;;475.07;;
9900;SDS011;4989;48.772;9.154;2023-07-28T21:48:15;554.63;;;511.33;;
9900;SDS011;4989;48.772;9.154;2023-07-28T21:53:17;519.37;;;477.70;;
9900;SDS011;4989;48.772;9.154;2023-07-28T21:58:30;386.67;;;350.27;;
9900;SDS011;4989;48.772;9.154;2023-07-28T22:03:43;419.57;;;380.93;;
9900;SDS011;4989;48.772;9.154;2023-07-28T22:08:55;460.20;;;420.70;;
9900;SDS011;4989;48.772;9.154;2023-07-28T22:13:57;355.27;;;319.73;;
9900;SDS011;4989;48.772;9.154;2023-07-28T22:19:21;429.53;;;391.17;;
9900;SDS011;4989;48.772;9.154;2023-07-28T22:24:26;398.93;;;361.67;;
9900;SDS011;4989;48.772;9.154;2023-07-28T22:29:36;315.37;;;276.03;;
9900;SDS011;4989;48.772;9.154;2023-07-28T22:35:47;378.27;;;341.63;;
9900;SDS011;4989;48.772;9.154;2023-07-28T22:41:05;293.93;;;237.53;;
9900;SDS011;4989;48.772;9.154;2023-07-28T22:46:13;369.23;;;332.97;;
9900;SDS011;4989;48.772;9.154;2023-07-28T22:51:35;292.40;;;231.60;;
9900;SDS011;4989;48.772;9.154;2023-07-28T22:56:48;350.50;;;314.70;;
9900;SDS011;4989;48.772;9.154;2023-07-28T23:01:58;294.13;;;242.33;;
9900;SDS011;4989;48.772;9.154;2023-07-28T23:07:32;304.93;;;263.63;;
9900;SDS011;4989;48.772;9.154;2023-07-28T23:12:35;298.27;;;252.37;;
9900;SDS011;4989;48.772;9.154;2023-07-28T23:17:48;356.27;;;320.43;;
9900;SDS011;4989;48.772;9.154;2023-07-28T23:22:53;359.43;;;323.40;;
9900;SDS011;4989;48.772;9.154;2023-07-28T23:33:51;379.13;;;342.27;;
9900;SDS011;4989;48.772;9.154;2023-07-28T23:38:54;429.43;;;391.00;;
9900;SDS011;4989;48.772;9.154;2023-07-28T23:43:56;367.37;;;331.23;;
9900;SDS011;4989;48.772;9.154;2023-07-28T23:48:58;304.97;;;263.93;;
9900;SDS011;4989;48.772;9.154;2023-07-28T23:54:00;293.23;;;240.07;;
9900;SDS011;4989;48.772;9.154;2023-07-28T23:59:02;297.63;;;252.77;;
